Time;durP1;ratioP1;P1;durP2;ratioP2;P2;SDS_P1;SDS_P2;PMS_P1;PMS_P2;Temp;Humidity;BMP_temperature;BMP_pressure;BME280_temperature;BME280_humidity;BME280_pressure;Samples;Min_cycle;Max_cycle;Signal;HPM_P1;HPM_P2
2024/03/21 00:00:19;;;;;;;2.70;2.43;;;10.20;99.90;;;;;;5034003;28;20425;-82
2024/03/21 00:02:46;;;;;;;2.85;2.47;;;10.10;99.90;;;;;;5040512;28;20395;-81
2024/03/21 00:05:15;;;;;;;2.30;2.10;;;10.10;99.90;;;;;;5027450;28;20402;-82
2024/03/21 00:07:46;;;;;;;3.17;2.47;;;10.10;99.90;;;;;;5035532;28;20525;-82
2024/03/21 00:10:13;;;;;;;3.00;2.70;;;10.00;99.90;;;;;;5034436;28;20395;-82
2024/03/21 00:12:39;;;;;;;2.45;2.25;;;10.00;99.90;;;;;;5034411;28;20762;-82
2024/03/21 00:15:05;;;;;;;2.80;2.50;;;9.90;99.90;;;;;;5030436;28;20479;-81
2024/03/21 00:17:32;;;;;;;3.33;2.47;;;10.00;99.90;;;;;;5033015;28;20452;-82
2024/03/21 00:19:57;;;;;;;3.78;2.20;;;9.70;99.90;;;;;;5034083;28;20430;-82
2024/03/21 00:22:23;;;;;;;4.00;2.40;;;9.80;99.90;;;;;;5036322;28;20391;-80
2024/03/21 00:24:49;;;;;;;2.55;2.35;;;10.00;99.90;;;;;;5026694;28;20393;-80
2024/03/21 00:27:14;;;;;;;2.90;2.58;;;10.00;99.90;;;;;;5017571;28;20597;-80
2024/03/21 00:29:40;;;;;;;2.78;2.13;;;10.00;99.90;;;;;;5034516;28;20379;-80
2024/03/21 00:32:06;;;;;;;4.50;2.35;;;10.00;99.90;;;;;;5036916;28;21043;-81
2024/03/21 00:34:32;;;;;;;4.45;2.60;;;10.20;99.90;;;;;;5031088;28;20381;-81
2024/03/21 00:36:57;;;;;;;2.90;2.60;;;9.50;99.90;;;;;;5019223;28;20453;-81
2024/03/21 00:39:23;;;;;;;2.70;2.40;;;9.90;99.90;;;;;;5035474;28;20410;-80
2024/03/21 00:41:50;;;;;;;3.80;2.60;;;9.50;99.90;;;;;;5028308;28;20397;-79
2024/03/21 00:44:16;;;;;;;3.03;2.72;;;9.70;99.90;;;;;;5021913;28;20424;-79
2024/03/21 00:46:41;;;;;;;2.50;2.30;;;10.10;99.90;;;;;;5044076;28;20402;-80
2024/03/21 00:49:11;;;;;;;2.30;2.10;;;10.10;99.90;;;;;;5038770;28;20767;-82
2024/03/21 00:51:39;;;;;;;4.10;2.35;;;10.10;99.90;;;;;;5034662;28;20441;-79
2024/03/21 00:54:05;;;;;;;3.00;2.50;;;9.80;99.90;;;;;;5035514;28;20387;-79
2024/03/21 00:56:31;;;;;;;2.20;2.00;;;10.10;99.90;;;;;;5017467;28;20453;-80
2024/03/21 00:58:58;;;;;;;2.85;2.10;;;9.70;99.90;;;;;;5023880;28;20438;-80
2024/03/21 01:01:25;;;;;;;2.70;2.50;;;10.00;99.90;;;;;;5038980;28;20402;-80
2024/03/21 01:03:51;;;;;;;3.60;2.40;;;9.70;99.90;;;;;;5039107;28;20801;-80
2024/03/21 01:06:16;;;;;;;2.50;2.30;;;10.00;99.90;;;;;;5019813;28;20503;-80
2024/03/21 01:08:42;;;;;;;2.60;2.40;;;10.10;99.90;;;;;;5013602;28;20761;-81
2024/03/21 01:11:08;;;;;;;2.45;2.20;;;10.20;99.90;;;;;;5027568;28;20887;-80
2024/03/21 01:13:34;;;;;;;2.63;2.40;;;9.90;99.90;;;;;;5033556;28;20386;-80
2024/03/21 01:15:59;;;;;;;2.67;2.30;;;10.20;99.90;;;;;;5034736;28;20387;-80
2024/03/21 01:18:34;;;;;;;3.50;2.00;;;10.30;99.90;;;;;;5036946;28;20422;-80
2024/03/21 01:21:02;;;;;;;3.33;2.47;;;10.30;99.90;;;;;;5037082;28;20814;-80
2024/03/21 01:23:27;;;;;;;3.90;2.10;;;10.10;99.90;;;;;;5035796;28;20441;-80
2024/03/21 01:25:53;;;;;;;7.70;2.58;;;10.30;99.90;;;;;;5025657;28;20399;-79
2024/03/21 01:28:18;;;;;;;3.80;2.50;;;10.30;99.90;;;;;;5021388;28;20822;-80
2024/03/21 01:30:44;;;;;;;2.80;2.10;;;10.00;99.90;;;;;;5036053;28;20956;-80
2024/03/21 01:33:09;;;;;;;2.60;2.40;;;9.80;99.90;;;;;;5032085;28;20445;-80
2024/03/21 01:35:35;;;;;;;2.37;2.03;;;10.20;99.90;;;;;;5024031;28;20452;-80
2024/03/21 01:38:00;;;;;;;3.57;2.30;;;10.40;99.90;;;;;;5013403;28;20392;-81
2024/03/21 01:40:26;;;;;;;4.10;2.30;;;10.40;99.90;;;;;;5033030;28;20405;-80
2024/03/21 01:42:52;;;;;;;2.47;2.28;;;9.80;99.90;;;;;;5054108;28;20381;-80
2024/03/21 01:45:18;;;;;;;3.00;2.30;;;10.60;99.90;;;;;;5041855;28;20428;-80
2024/03/21 01:47:44;;;;;;;2.28;1.90;;;10.30;99.90;;;;;;5015786;28;20406;-80
2024/03/21 01:50:10;;;;;;;2.40;2.20;;;10.50;99.90;;;;;;5035348;28;20416;-80
2024/03/21 01:52:36;;;;;;;2.50;2.20;;;10.60;99.90;;;;;;5052215;28;20413;-80
2024/03/21 01:55:05;;;;;;;2.55;2.35;;;10.50;99.90;;;;;;5045239;28;20392;-80
2024/03/21 01:57:35;;;;;;;2.85;2.40;;;10.70;99.90;;;;;;5034750;28;20474;-82
2024/03/21 02:00:03;;;;;;;3.88;2.40;;;10.80;99.90;;;;;;5033708;28;20393;-82
2024/03/21 02:02:29;;;;;;;2.58;2.15;;;10.80;99.90;;;;;;5033817;28;20394;-83
2024/03/21 02:04:55;;;;;;;2.25;1.70;;;10.70;99.90;;;;;;5031883;28;20491;-82
2024/03/21 02:07:21;;;;;;;2.00;1.90;;;10.30;99.90;;;;;;5044366;28;20442;-82
2024/03/21 02:09:49;;;;;;;2.80;2.22;;;10.20;99.90;;;;;;5033935;28;21032;-80
2024/03/21 02:12:43;;;;;;;3.08;2.55;;;10.50;99.90;;;;;;5031571;28;20438;-82
2024/03/21 02:15:10;;;;;;;3.13;2.35;;;10.70;99.90;;;;;;5035584;28;20397;-81
2024/03/21 02:17:35;;;;;;;5.10;2.40;;;10.40;99.90;;;;;;5052220;28;20412;-82
2024/03/21 02:20:03;;;;;;;3.03;2.38;;;10.80;99.90;;;;;;5045887;28;20389;-82
2024/03/21 02:22:37;;;;;;;2.08;1.90;;;10.70;99.90;;;;;;5051869;28;20420;-82
2024/03/21 02:25:09;;;;;;;3.35;2.20;;;10.70;99.90;;;;;;5037154;28;20449;-82
2024/03/21 02:27:35;;;;;;;2.60;2.40;;;10.80;99.90;;;;;;5020167;28;20854;-80
2024/03/21 02:30:01;;;;;;;3.10;2.50;;;10.50;99.90;;;;;;5030448;28;20469;-82
2024/03/21 02:32:27;;;;;;;2.50;2.30;;;10.80;99.90;;;;;;5032259;28;20418;-81
2024/03/21 02:34:53;;;;;;;2.40;2.20;;;10.80;99.90;;;;;;5031887;28;20433;-82
2024/03/21 02:37:19;;;;;;;2.90;2.70;;;10.80;99.90;;;;;;5020630;28;20421;-82
2024/03/21 02:39:52;;;;;;;2.73;2.30;;;12.40;99.90;;;;;;5034787;28;20397;-81
2024/03/21 02:42:21;;;;;;;2.88;2.35;;;10.70;99.90;;;;;;5059822;22;20982;-81
2024/03/21 02:44:49;;;;;;;2.50;2.30;;;10.80;99.90;;;;;;5035938;28;20948;-81
2024/03/21 02:47:14;;;;;;;2.63;2.40;;;10.70;99.90;;;;;;5036376;28;20424;-82
2024/03/21 02:49:40;;;;;;;5.93;2.70;;;10.70;99.90;;;;;;5039822;28;20391;-81
2024/03/21 02:52:06;;;;;;;3.70;2.40;;;10.80;99.90;;;;;;5050373;28;20389;-82
2024/03/21 02:54:32;;;;;;;3.00;2.30;;;11.20;99.90;;;;;;5050658;28;20381;-82
2024/03/21 02:57:06;;;;;;;2.37;2.10;;;10.80;99.90;;;;;;5017730;28;20405;-81
2024/03/21 02:59:34;;;;;;;2.67;1.90;;;11.00;99.90;;;;;;5051307;28;20393;-81
2024/03/21 03:02:01;;;;;;;3.08;2.00;;;11.10;99.90;;;;;;5055438;28;20809;-82
2024/03/21 03:04:26;;;;;;;3.33;2.00;;;11.30;99.90;;;;;;5058082;28;20443;-81
2024/03/21 03:06:52;;;;;;;3.20;2.03;;;11.50;99.90;;;;;;5041705;28;20410;-81
2024/03/21 03:09:17;;;;;;;2.40;2.00;;;11.60;99.90;;;;;;5047237;28;20453;-81
2024/03/21 03:11:43;;;;;;;2.30;2.10;;;11.80;99.90;;;;;;5039795;28;20402;-80
2024/03/21 03:14:09;;;;;;;2.70;2.22;;;11.80;99.90;;;;;;5046520;28;20861;-81
2024/03/21 03:16:34;;;;;;;2.20;2.00;;;11.70;99.90;;;;;;5056258;28;20405;-81
2024/03/21 03:19:01;;;;;;;2.20;2.00;;;11.20;99.90;;;;;;5054533;28;20397;-81
2024/03/21 03:21:27;;;;;;;3.00;2.15;;;11.60;99.90;;;;;;5041801;28;20401;-81
2024/03/21 03:23:52;;;;;;;2.40;2.20;;;11.60;99.90;;;;;;5038511;28;20389;-81
2024/03/21 03:26:18;;;;;;;4.25;2.00;;;11.40;99.90;;;;;;5045631;28;20449;-82
2024/03/21 03:28:43;;;;;;;3.03;1.90;;;11.60;99.90;;;;;;5054162;28;20387;-81
2024/03/21 03:31:09;;;;;;;2.10;1.90;;;11.60;99.90;;;;;;5028060;28;20413;-82
2024/03/21 03:36:18;;;;;;;2.40;2.20;;;11.70;99.90;;;;;;5053631;28;20408;-81
2024/03/21 03:38:44;;;;;;;2.72;2.00;;;10.90;99.90;;;;;;5052877;28;20402;-81
2024/03/21 03:41:10;;;;;;;2.33;1.90;;;11.90;99.90;;;;;;5046450;28;20480;-81
2024/03/21 03:43:35;;;;;;;3.40;2.20;;;11.40;99.90;;;;;;5037508;28;20393;-80
2024/03/21 03:46:01;;;;;;;2.90;2.30;;;11.30;99.90;;;;;;5055849;28;20404;-81
2024/03/21 03:48:26;;;;;;;2.33;2.00;;;11.20;99.90;;;;;;5056634;28;20610;-81
2024/03/21 03:50:52;;;;;;;2.53;2.33;;;11.50;99.90;;;;;;5056249;28;20936;-81
2024/03/21 03:53:17;;;;;;;2.40;2.20;;;11.80;99.90;;;;;;5038339;28;20386;-80
2024/03/21 03:55:43;;;;;;;2.40;2.20;;;12.60;99.90;;;;;;5050930;28;20397;-82
2024/03/21 03:58:08;;;;;;;2.47;2.25;;;10.90;99.90;;;;;;5024934;28;20393;-82
2024/03/21 04:00:34;;;;;;;3.43;2.17;;;12.30;99.90;;;;;;5057071;28;20548;-82
2024/03/21 04:02:59;;;;;;;2.40;2.20;;;11.40;99.90;;;;;;5055931;28;20385;-81
2024/03/21 04:05:25;;;;;;;2.40;1.90;;;13.10;99.90;;;;;;5053810;28;20419;-81
2024/03/21 04:07:51;;;;;;;2.63;2.27;;;14.00;99.90;;;;;;5044313;28;20419;-80
2024/03/21 04:10:16;;;;;;;2.10;1.90;;;13.20;99.90;;;;;;5040284;28;20392;-81
2024/03/21 04:12:42;;;;;;;3.00;2.08;;;13.90;99.90;;;;;;5056389;28;20393;-80
2024/03/21 04:15:08;;;;;;;2.50;2.10;;;14.50;99.90;;;;;;5039144;28;20901;-81
2024/03/21 04:17:34;;;;;;;4.00;2.30;;;14.70;99.90;;;;;;5037982;28;20533;-82
2024/03/21 04:20:01;;;;;;;2.38;2.05;;;16.60;99.90;;;;;;5037510;28;20411;-81
2024/03/21 04:22:27;;;;;;;2.60;2.40;;;14.80;99.90;;;;;;5036735;28;20497;-82
2024/03/21 04:24:52;;;;;;;2.77;2.20;;;15.20;99.90;;;;;;5056601;28;20830;-81
2024/03/21 04:27:18;;;;;;;2.97;2.30;;;15.30;99.90;;;;;;5054556;28;20924;-80
2024/03/21 04:29:44;;;;;;;4.40;2.80;;;15.10;99.90;;;;;;5039310;28;20415;-82
2024/03/21 04:32:15;;;;;;;2.67;2.40;;;15.50;99.90;;;;;;5053156;28;20966;-82
2024/03/21 04:34:42;;;;;;;2.67;2.20;;;15.10;99.90;;;;;;5049159;28;20390;-84
2024/03/21 04:37:15;;;;;;;3.30;2.23;;;15.40;99.90;;;;;;5048317;28;20485;-81
2024/03/21 04:39:41;;;;;;;2.85;2.35;;;17.10;99.90;;;;;;5052469;28;20387;-82
2024/03/21 04:42:07;;;;;;;2.55;2.20;;;14.90;99.90;;;;;;5036298;28;20489;-82
2024/03/21 04:44:32;;;;;;;3.55;2.60;;;15.40;99.90;;;;;;5037938;28;20526;-80
2024/03/21 04:46:58;;;;;;;3.80;2.05;;;15.30;99.90;;;;;;5051982;28;20432;-81
2024/03/21 04:49:23;;;;;;;2.90;2.30;;;15.30;99.90;;;;;;5032878;28;20397;-81
2024/03/21 04:51:49;;;;;;;3.83;2.30;;;14.90;99.90;;;;;;5056776;28;20450;-82
2024/03/21 04:54:15;;;;;;;2.83;2.43;;;16.10;99.90;;;;;;5058622;28;20459;-80
2024/03/21 04:56:40;;;;;;;2.63;2.42;;;14.50;99.90;;;;;;5056248;28;20451;-79
2024/03/21 04:59:08;;;;;;;2.93;2.60;;;14.70;99.90;;;;;;5051138;28;20400;-81
2024/03/21 05:01:36;;;;;;;3.30;2.70;;;14.80;99.90;;;;;;5057680;28;20414;-82
2024/03/21 05:04:02;;;;;;;3.00;2.80;;;14.50;99.90;;;;;;5052130;28;20381;-81
2024/03/21 05:06:27;;;;;;;2.90;2.70;;;14.60;99.90;;;;;;5057275;28;20418;-82
2024/03/21 05:08:53;;;;;;;4.25;2.80;;;14.30;99.90;;;;;;5043656;28;20435;-79
2024/03/21 05:11:18;;;;;;;5.30;3.30;;;13.50;99.90;;;;;;5061730;28;20397;-85
2024/03/21 05:13:47;;;;;;;4.23;3.60;;;12.70;99.90;;;;;;5056313;28;20400;-82
2024/03/21 05:16:13;;;;;;;4.35;3.85;;;12.80;99.90;;;;;;5033342;28;20422;-84
2024/03/21 05:18:38;;;;;;;4.07;3.67;;;12.20;99.90;;;;;;5057023;28;20390;-84
2024/03/21 05:21:04;;;;;;;5.03;3.53;;;12.50;99.90;;;;;;5056529;28;20389;-83
2024/03/21 05:23:29;;;;;;;4.83;3.60;;;12.40;99.90;;;;;;5045908;28;20742;-84
2024/03/21 05:25:55;;;;;;;4.10;3.70;;;11.50;99.90;;;;;;5056482;28;20406;-83
2024/03/21 05:28:21;;;;;;;5.22;3.60;;;12.00;99.90;;;;;;5059223;28;20412;-83
2024/03/21 05:30:47;;;;;;;5.95;3.78;;;12.60;99.90;;;;;;5058064;28;20378;-85
2024/03/21 05:33:12;;;;;;;4.25;3.85;;;11.40;99.90;;;;;;5054832;28;20493;-84
2024/03/21 05:35:38;;;;;;;5.83;4.00;;;12.00;99.90;;;;;;5041407;28;20804;-84
2024/03/21 05:38:03;;;;;;;4.60;3.90;;;11.80;99.90;;;;;;5047908;28;20766;-83
2024/03/21 05:40:29;;;;;;;8.02;4.50;;;11.90;99.90;;;;;;5038099;28;20389;-84
2024/03/21 05:42:55;;;;;;;5.03;4.40;;;10.90;99.90;;;;;;5032965;28;21036;-84
2024/03/21 05:45:20;;;;;;;5.93;4.63;;;11.20;99.90;;;;;;5052164;28;20837;-84
2024/03/21 05:47:45;;;;;;;4.80;4.00;;;11.80;99.90;;;;;;5038913;28;20407;-84
2024/03/21 05:50:11;;;;;;;7.20;4.30;;;11.40;99.90;;;;;;5052387;28;20400;-84
2024/03/21 05:52:37;;;;;;;7.07;4.72;;;11.50;99.90;;;;;;5048847;28;20375;-84
2024/03/21 05:55:02;;;;;;;6.30;4.30;;;11.40;99.90;;;;;;5040886;28;20914;-85
2024/03/21 05:57:28;;;;;;;5.00;4.53;;;11.60;99.90;;;;;;5020048;28;20402;-84
2024/03/21 05:59:54;;;;;;;5.60;5.00;;;11.60;99.90;;;;;;5055579;28;20455;-85
2024/03/21 06:02:20;;;;;;;5.67;4.77;;;11.50;99.90;;;;;;5052627;28;20527;-84
2024/03/21 06:04:45;;;;;;;5.20;4.30;;;11.60;99.90;;;;;;5048436;28;20385;-83
2024/03/21 06:07:11;;;;;;;6.30;5.00;;;11.40;99.90;;;;;;5036438;28;20405;-84
2024/03/21 06:09:36;;;;;;;5.18;4.68;;;11.60;99.90;;;;;;5050861;28;20481;-82
2024/03/21 06:12:02;;;;;;;6.63;5.07;;;11.60;99.90;;;;;;5032684;28;20389;-83
2024/03/21 06:14:27;;;;;;;7.47;5.17;;;11.70;99.90;;;;;;5032506;28;20420;-84
2024/03/21 06:16:53;;;;;;;6.95;5.30;;;11.30;99.90;;;;;;5036114;28;20379;-84
2024/03/21 06:19:18;;;;;;;7.60;5.70;;;11.50;99.90;;;;;;5039058;28;20393;-85
2024/03/21 06:21:44;;;;;;;6.73;5.20;;;11.50;99.90;;;;;;5036898;28;20393;-84
2024/03/21 06:24:10;;;;;;;6.75;6.00;;;11.50;99.90;;;;;;5043713;28;20393;-85
2024/03/21 06:26:36;;;;;;;8.07;6.28;;;11.60;99.90;;;;;;5036549;28;20763;-84
2024/03/21 06:29:02;;;;;;;6.50;5.90;;;11.50;99.90;;;;;;5056106;28;20381;-84
2024/03/21 06:31:27;;;;;;;5.78;5.20;;;11.20;99.90;;;;;;5055186;28;20389;-85
2024/03/21 06:33:53;;;;;;;6.90;5.80;;;10.80;99.90;;;;;;5035215;28;20386;-82
2024/03/21 06:36:18;;;;;;;6.78;4.97;;;11.40;99.90;;;;;;5057925;28;20392;-80
2024/03/21 06:38:44;;;;;;;5.93;5.00;;;11.30;99.90;;;;;;5039382;28;20478;-82
2024/03/21 06:41:09;;;;;;;6.70;5.80;;;11.60;99.90;;;;;;5035809;28;20417;-81
2024/03/21 06:43:35;;;;;;;6.90;5.00;;;11.60;99.90;;;;;;5055548;28;20389;-82
2024/03/21 06:46:00;;;;;;;5.23;4.73;;;11.60;99.90;;;;;;5060369;28;20420;-81
2024/03/21 06:48:26;;;;;;;7.03;5.10;;;11.60;99.90;;;;;;5061134;28;20435;-81
2024/03/21 06:50:52;;;;;;;5.30;4.80;;;11.50;99.90;;;;;;5038222;28;20413;-79
2024/03/21 06:53:17;;;;;;;5.60;5.00;;;11.50;99.90;;;;;;5051782;28;20745;-80
2024/03/21 06:55:43;;;;;;;7.37;4.67;;;11.70;99.90;;;;;;5052377;28;20385;-78
2024/03/21 06:58:08;;;;;;;8.27;5.63;;;11.60;99.90;;;;;;5031729;28;20404;-81
2024/03/21 07:00:34;;;;;;;6.93;6.22;;;11.70;99.90;;;;;;5052503;28;20440;-80
2024/03/21 07:03:00;;;;;;;7.63;6.82;;;12.40;99.90;;;;;;5050932;28;20396;-80
2024/03/21 07:05:26;;;;;;;6.50;5.70;;;11.70;99.90;;;;;;5035766;28;20420;-80
2024/03/21 07:07:55;;;;;;;5.22;4.60;;;11.20;99.90;;;;;;5036027;28;20409;-80
2024/03/21 07:10:21;;;;;;;7.00;4.90;;;11.80;99.90;;;;;;5034730;28;20805;-79
2024/03/21 07:12:47;;;;;;;6.97;5.20;;;11.90;99.90;;;;;;5036946;28;20937;-80
2024/03/21 07:15:14;;;;;;;7.00;5.30;;;12.00;99.90;;;;;;5050338;28;20405;-79
2024/03/21 07:17:40;;;;;;;4.85;4.35;;;11.60;99.90;;;;;;5033350;28;20414;-79
2024/03/21 07:20:06;;;;;;;6.60;4.70;;;12.10;99.90;;;;;;5051262;28;20386;-79
2024/03/21 07:22:32;;;;;;;6.03;4.40;;;12.20;99.90;;;;;;5051403;28;20392;-79
2024/03/21 07:24:58;;;;;;;5.87;4.30;;;12.80;99.90;;;;;;5050289;28;20405;-79
2024/03/21 07:27:23;;;;;;;5.53;3.70;;;11.90;99.90;;;;;;5033196;28;20489;-78
2024/03/21 07:29:49;;;;;;;6.40;4.00;;;12.60;99.90;;;;;;5036066;28;20398;-79
2024/03/21 07:32:14;;;;;;;4.43;4.03;;;12.80;99.90;;;;;;5037180;28;20388;-78
2024/03/21 07:34:40;;;;;;;4.80;3.90;;;13.10;99.90;;;;;;5036578;28;20397;-78
2024/03/21 07:37:05;;;;;;;4.68;3.50;;;13.10;99.90;;;;;;5036053;28;20397;-79
2024/03/21 07:39:33;;;;;;;3.53;3.22;;;12.80;99.90;;;;;;5054967;28;20393;-78
2024/03/21 07:42:03;;;;;;;8.02;3.80;;;13.50;99.90;;;;;;5033801;28;20428;-79
2024/03/21 07:44:29;;;;;;;4.30;3.67;;;13.70;99.90;;;;;;5054675;28;20436;-78
2024/03/21 07:46:55;;;;;;;4.07;3.42;;;13.60;99.90;;;;;;5052897;28;20836;-79
2024/03/21 07:49:21;;;;;;;4.57;3.42;;;13.70;99.90;;;;;;5042344;28;20397;-77
2024/03/21 07:51:50;;;;;;;5.93;3.60;;;13.80;99.90;;;;;;5058598;28;20390;-77
2024/03/21 07:54:16;;;;;;;4.10;3.33;;;13.70;99.90;;;;;;5056541;28;20406;-81
2024/03/21 07:56:42;;;;;;;4.80;3.30;;;14.00;99.90;;;;;;5035594;28;20398;-81
2024/03/21 07:59:07;;;;;;;4.10;2.70;;;13.90;99.90;;;;;;5050525;28;20401;-79
2024/03/21 08:01:34;;;;;;;4.25;2.97;;;14.30;99.90;;;;;;5050014;28;20393;-79
2024/03/21 08:04:04;;;;;;;3.85;2.60;;;14.10;99.90;;;;;;5049680;28;20439;-76
2024/03/21 08:06:30;;;;;;;4.03;3.30;;;14.10;99.90;;;;;;5031479;28;20401;-79
2024/03/21 08:08:56;;;;;;;4.80;2.90;;;13.80;99.90;;;;;;5050801;28;20392;-79
2024/03/21 08:11:21;;;;;;;4.30;3.28;;;14.30;99.90;;;;;;5031129;28;20522;-80
2024/03/21 08:13:47;;;;;;;3.80;3.30;;;13.90;99.90;;;;;;5050787;28;20886;-81
2024/03/21 08:16:12;;;;;;;3.83;3.47;;;14.50;99.90;;;;;;5052266;28;20919;-80
2024/03/21 08:18:38;;;;;;;3.92;3.53;;;14.60;99.90;;;;;;5051055;28;20809;-79
2024/03/21 08:21:04;;;;;;;3.60;3.30;;;14.70;99.90;;;;;;5032118;28;20451;-79
2024/03/21 08:23:30;;;;;;;3.53;3.23;;;14.80;99.90;;;;;;5050039;28;20446;-80
2024/03/21 08:26:04;;;;;;;3.30;3.00;;;14.90;99.90;;;;;;5049926;28;20396;-78
2024/03/21 08:28:30;;;;;;;3.33;2.97;;;14.90;99.90;;;;;;5049218;28;20769;-77
2024/03/21 08:30:56;;;;;;;4.05;3.40;;;15.20;99.90;;;;;;5031449;28;20663;-78
2024/03/21 08:33:23;;;;;;;3.10;2.80;;;15.00;99.90;;;;;;5049314;28;20381;-80
2024/03/21 08:35:49;;;;;;;4.40;3.70;;;15.10;99.90;;;;;;5048192;28;20467;-78
2024/03/21 08:38:14;;;;;;;4.18;2.92;;;15.30;99.90;;;;;;5049197;28;20417;-78
2024/03/21 08:40:48;;;;;;;6.65;5.10;;;15.40;99.90;;;;;;5049267;28;20437;-78
2024/03/21 08:43:14;;;;;;;6.10;3.92;;;14.50;99.90;;;;;;5029699;28;20462;-79
2024/03/21 08:45:43;;;;;;;4.60;3.50;;;15.10;99.90;;;;;;5030176;28;20397;-80
2024/03/21 08:48:09;;;;;;;4.40;3.70;;;15.70;99.90;;;;;;5049451;28;20405;-80
2024/03/21 08:50:34;;;;;;;3.70;3.23;;;15.70;99.90;;;;;;5048543;28;20934;-78
2024/03/21 08:53:00;;;;;;;3.20;2.90;;;15.20;99.90;;;;;;5049321;28;20390;-79
2024/03/21 08:55:25;;;;;;;2.75;2.50;;;15.40;99.90;;;;;;5048562;28;20931;-78
2024/03/21 08:57:51;;;;;;;3.43;2.53;;;17.20;99.90;;;;;;5049243;28;20912;-79
2024/03/21 09:00:17;;;;;;;3.30;2.78;;;15.40;99.90;;;;;;5049218;28;20401;-77
2024/03/21 09:02:42;;;;;;;3.47;2.95;;;15.30;99.90;;;;;;5030664;28;20798;-79
2024/03/21 09:05:08;;;;;;;3.10;2.80;;;;;;;;;;5064789;22;20436;-84
2024/03/21 09:07:37;;;;;;;4.20;3.40;;;;;;;;;;5034556;28;20479;-82
2024/03/21 09:10:24;;;;;;;3.92;3.05;;;;;;;;;;5033773;28;20771;-83
2024/03/21 09:12:55;;;;;;;3.58;2.58;;;;;;;;;;5032823;28;20458;-81
2024/03/21 09:15:29;;;;;;;3.80;2.80;;;;;;;;;;5024822;28;20387;-85
2024/03/21 09:18:03;;;;;;;4.15;3.00;;;;;;;;;;5014690;28;20380;-83
2024/03/21 09:20:29;;;;;;;3.60;2.50;;;;;;;;;;5013833;28;20864;-83
2024/03/21 09:25:43;;;;;;;3.00;2.80;;;;;;;;;;5012942;28;20385;-83
2024/03/21 09:28:14;;;;;;;3.85;2.50;;;;;;;;;;5013266;28;20409;-87
2024/03/21 09:30:45;;;;;;;4.18;3.20;;;;;;;;;;5012764;28;20761;-85
2024/03/21 09:33:20;;;;;;;4.10;3.00;;;;;;;;;;5012682;28;20389;-85
2024/03/21 09:36:05;;;;;;;3.05;2.50;;;15.50;99.90;;;;;;5011983;28;20389;-84
2024/03/21 09:38:43;;;;;;;3.80;2.70;;;15.90;99.90;;;;;;5012803;28;20399;-84
2024/03/21 09:41:20;;;;;;;3.90;3.03;;;15.90;99.90;;;;;;5012684;28;20389;-81
2024/03/21 09:43:46;;;;;;;3.35;3.00;;;;;;;;;;5012879;28;20405;-83
2024/03/21 09:46:17;;;;;;;3.13;2.83;;;;;;;;;;5013512;28;20392;-84
2024/03/21 09:48:43;;;;;;;3.80;3.30;;;;;;;;;;5013626;28;20472;-83
2024/03/21 09:51:18;;;;;;;6.85;3.10;;;;;;;;;;5012808;28;20385;-83
2024/03/21 09:53:44;;;;;;;3.83;3.00;;;;;;;;;;5012037;28;20381;-84
2024/03/21 09:56:11;;;;;;;3.50;3.00;;;16.70;99.90;;;;;;5011988;28;20388;-84
2024/03/21 09:58:36;;;;;;;5.20;3.20;;;16.80;99.90;;;;;;5012147;28;20427;-82
2024/03/21 10:01:23;;;;;;;3.63;3.00;;;17.80;99.90;;;;;;5013936;28;20400;-82
2024/03/21 10:03:56;;;;;;;3.33;3.03;;;16.60;99.90;;;;;;5014521;28;20377;-82
2024/03/21 10:06:22;;;;;;;4.60;3.15;;;16.80;99.90;;;;;;5012354;28;20447;-82
2024/03/21 10:08:48;;;;;;;3.97;3.28;;;16.80;99.90;;;;;;5013209;28;20397;-82
2024/03/21 10:11:13;;;;;;;4.45;3.40;;;16.60;99.90;;;;;;5012197;28;20487;-81
2024/03/21 10:13:45;;;;;;;4.30;2.80;;;16.80;99.90;;;;;;5012565;28;20896;-82
2024/03/21 10:16:13;;;;;;;3.65;3.08;;;17.00;99.90;;;;;;5013019;28;20820;-85
2024/03/21 10:18:39;;;;;;;3.50;3.20;;;16.40;99.90;;;;;;5012198;28;20392;-82
2024/03/21 10:21:14;;;;;;;4.43;3.60;;;16.50;99.90;;;;;;5013460;28;20391;-83
2024/03/21 10:23:41;;;;;;;3.50;3.20;;;16.60;99.90;;;;;;5011805;28;20396;-82
2024/03/21 10:26:14;;;;;;;4.00;3.10;;;17.10;99.90;;;;;;5012802;28;20404;-84
2024/03/21 10:28:44;;;;;;;3.60;3.30;;;17.30;99.90;;;;;;5013557;28;20385;-82
2024/03/21 10:31:14;;;;;;;4.43;3.63;;;16.90;99.90;;;;;;5013832;28;20458;-83
2024/03/21 10:33:43;;;;;;;3.70;3.40;;;17.80;99.90;;;;;;5013554;28;20389;-82
2024/03/21 10:36:13;;;;;;;4.20;3.50;;;18.30;99.90;;;;;;5014437;28;20397;-82
2024/03/21 10:38:39;;;;;;;3.45;2.92;;;16.80;99.90;;;;;;5013559;28;20865;-82
2024/03/21 10:41:25;;;;;;;4.80;3.10;;;16.60;99.90;;;;;;5014910;28;20389;-85
2024/03/21 10:44:06;;;;;;;3.50;3.20;;;16.60;99.90;;;;;;5013753;28;20420;-83
2024/03/21 10:46:36;;;;;;;3.78;3.33;;;17.10;99.90;;;;;;5022165;28;20385;-82
2024/03/21 10:49:01;;;;;;;3.72;3.33;;;16.40;99.90;;;;;;5026335;28;20408;-82
2024/03/21 10:51:27;;;;;;;4.00;3.23;;;17.60;99.90;;;;;;5024982;28;20404;-82
2024/03/21 10:53:57;;;;;;;3.60;3.20;;;16.40;99.90;;;;;;5015891;28;20389;-83
2024/03/21 10:56:26;;;;;;;5.55;3.20;;;16.70;99.90;;;;;;5017235;28;20419;-82
2024/03/21 10:58:59;;;;;;;3.55;3.25;;;17.00;99.90;;;;;;5018903;28;20385;-83
2024/03/21 11:01:39;;;;;;;5.03;3.20;;;16.50;99.90;;;;;;5015549;28;20385;-81
2024/03/21 11:04:05;;;;;;;3.58;2.50;;;16.50;99.90;;;;;;5015835;28;20500;-83
2024/03/21 11:06:34;;;;;;;4.00;2.60;;;16.50;99.90;;;;;;5012852;28;20412;-82
2024/03/21 11:09:02;;;;;;;3.97;2.88;;;16.50;99.90;;;;;;5017895;28;20381;-82
2024/03/21 11:11:29;;;;;;;3.10;2.70;;;17.20;99.90;;;;;;5016833;28;20392;-82
2024/03/21 11:13:58;;;;;;;3.20;2.90;;;17.50;99.90;;;;;;5013946;28;20413;-82
2024/03/21 11:16:24;;;;;;;3.70;2.78;;;16.50;99.90;;;;;;5013311;28;20415;-82
2024/03/21 11:18:50;;;;;;;3.08;2.30;;;17.20;99.90;;;;;;5015336;28;20389;-82
2024/03/21 11:21:15;;;;;;;4.00;2.78;;;16.80;99.90;;;;;;5015551;28;20388;-82
2024/03/21 11:23:50;;;;;;;2.90;2.40;;;16.20;99.90;;;;;;5019409;28;20381;-81
2024/03/21 11:26:20;;;;;;;2.90;2.05;;;17.50;99.90;;;;;;5019224;28;20742;-82
2024/03/21 11:28:46;;;;;;;5.50;2.50;;;17.80;99.90;;;;;;5017850;28;20391;-82
2024/03/21 11:31:27;;;;;;;3.60;2.10;;;16.80;99.90;;;;;;5013926;28;20392;-82
2024/03/21 11:33:53;;;;;;;2.70;2.50;;;18.00;99.90;;;;;;5014671;28;20439;-83
2024/03/21 11:36:21;;;;;;;3.13;2.10;;;18.70;99.90;;;;;;5020559;28;20784;-82
2024/03/21 11:38:53;;;;;;;2.33;2.13;;;19.40;99.90;;;;;;5030603;28;20472;-83
2024/03/21 11:41:26;;;;;;;2.70;2.10;;;19.70;99.90;;;;;;5033675;28;20415;-83
2024/03/21 11:43:54;;;;;;;3.47;2.17;;;19.10;99.90;;;;;;5031657;28;20389;-82
2024/03/21 11:46:20;;;;;;;2.83;2.20;;;17.70;99.90;;;;;;5030642;28;20385;-83
2024/03/21 11:49:09;;;;;;;2.63;2.05;;;18.00;99.90;;;;;;5026321;28;20477;-82
2024/03/21 11:51:38;;;;;;;3.58;2.10;;;19.00;99.90;;;;;;5018934;28;20388;-82
2024/03/21 11:54:08;;;;;;;2.50;1.75;;;19.20;99.90;;;;;;5020150;28;20415;-82
2024/03/21 11:56:36;;;;;;;3.53;2.60;;;20.10;99.90;;;;;;5017574;28;20458;-82
2024/03/21 11:59:03;;;;;;;2.40;1.90;;;19.30;99.90;;;;;;5018388;28;20389;-82
2024/03/21 12:01:28;;;;;;;2.00;1.77;;;20.10;99.90;;;;;;5018470;28;20400;-82
2024/03/21 12:03:54;;;;;;;2.53;2.33;;;20.30;99.90;;;;;;5016579;28;20907;-82
2024/03/21 12:06:19;;;;;;;4.10;2.33;;;19.60;99.90;;;;;;5016205;28;20488;-81
2024/03/21 12:08:47;;;;;;;2.38;2.05;;;18.90;99.90;;;;;;5017389;28;20392;-82
2024/03/21 12:11:18;;;;;;;2.72;2.30;;;20.20;99.90;;;;;;5018894;28;20468;-82
2024/03/21 12:13:44;;;;;;;2.45;2.25;;;20.20;99.90;;;;;;5016688;28;20389;-82
2024/03/21 12:16:18;;;;;;;2.67;2.30;;;19.50;99.90;;;;;;5018474;28;20792;-82
2024/03/21 12:18:47;;;;;;;2.85;2.30;;;19.30;99.90;;;;;;5019143;28;20883;-82
2024/03/21 12:21:20;;;;;;;2.40;2.05;;;19.10;99.90;;;;;;5018297;28;20389;-83
2024/03/21 12:23:48;;;;;;;2.80;2.30;;;19.50;99.90;;;;;;5018114;28;20381;-82
2024/03/21 12:26:15;;;;;;;2.08;1.80;;;19.70;99.90;;;;;;5018281;28;20447;-83
2024/03/21 12:28:42;;;;;;;2.80;2.40;;;20.30;99.90;;;;;;5018351;28;20428;-82
2024/03/21 12:31:13;;;;;;;2.90;2.15;;;20.80;99.90;;;;;;5018463;28;20403;-81
2024/03/21 12:33:42;;;;;;;1.70;1.60;;;20.40;99.90;;;;;;5018151;28;20435;-82
2024/03/21 12:36:11;;;;;;;2.85;2.20;;;21.10;99.90;;;;;;5016373;28;20397;-82
2024/03/21 12:38:38;;;;;;;2.78;1.90;;;22.50;99.90;;;;;;5017609;28;20411;-83
2024/03/21 12:41:05;;;;;;;3.45;2.15;;;20.60;99.90;;;;;;5017534;28;20396;-83
2024/03/21 12:43:31;;;;;;;2.47;1.60;;;19.80;99.90;;;;;;5015366;28;20447;-82
2024/03/21 12:45:57;;;;;;;2.05;1.60;;;19.70;99.90;;;;;;5001062;28;20437;-82
2024/03/21 12:48:28;;;;;;;3.80;2.10;;;19.30;99.90;;;;;;5009668;28;20408;-82
2024/03/21 12:50:54;;;;;;;2.47;2.28;;;18.90;99.90;;;;;;5014194;28;20404;-81
2024/03/21 12:53:21;;;;;;;3.47;2.60;;;19.40;99.90;;;;;;5015147;28;20389;-83
2024/03/21 12:55:48;;;;;;;2.80;2.20;;;18.00;99.90;;;;;;5015020;28;20476;-82
2024/03/21 12:58:15;;;;;;;2.97;2.20;;;19.60;99.90;;;;;;5016337;28;20388;-83